Rochdale, MA

1:15 AM EDT on June 30, 2015 (GMT -0400)
North Central State | Change Station
CLOSE
Current Station
Airport
Location: Pawtucket,
Elevation: 440 ft
Nearby Weather Stations

Elev 440 ft 41.92 °N, 71.49 °W | Updated 20 minutes ago

Clear
Clear
57 °F
Feels Like 57 °F
N
0
Wind Variable Wind from North

Today
High -- | Low -- °F
--% Chance of Precip.
Yesterday
High -- | Low -- °F
Precip. -- in
5:14 AM 8:27 PM
Waxing Gibbous, 96% visible
Pressure 29.96 in
Visibility 10.0 miles
Clouds Clear
Dew Point 52 °F
Humidity 82%
Rainfall 0.00 in
Snow Depth Not available.
UV 0 out of 12
Pollen 4.00 out of 12
Ozone Good
PM2.5 Good
Flu Activity Not available.
METAR KSFZ 300455Z AUTO 00000KT 10SM CLR 14/11 A2996 RMK AO1 40220 0110

More Conditions Fewer Conditions

Pressure 29.96 in
Visibility 10.0 miles
Clouds Clear
Dew Point 52 °F
Humidity 82%
Rainfall 0.00 in
Snow Depth Not available.
UV 0 out of 12
Pollen 4.00 out of 12
Ozone Good
PM2.5 Good
Flu Activity Not available.
METAR KSFZ 300455Z AUTO 00000KT 10SM CLR 14/11 A2996 RMK AO1 40220 0110

More Conditions Fewer Conditions

10-Day Weather Forecast

Almanac

Astronomy

Jun. 30, 2015 Rise Set
Actual Time 5:14 AM EDT 8:27 PM EDT
Civil Twilight 4:40 AM EDT 9:02 PM EDT
Nautical Twilight 3:55 AM EDT 9:46 PM EDT
Astronomical Twilight 3:01 AM EDT 10:40 PM EDT
Moon 6:59 PM EDT 4:05 AM EDT
Length of Visible Light 16h 22m
Length of Day
15h 13m
Tomorrow will be 0m 37s shorter.
Waxing Gibbous, 96% of the Moon is Illuminated
Today
Waxing Gibbous
Jul 1
Full
Jul 8
Last Quarter
Jul 15
New
Jul 24
First Quarter

Today's Extremes

State Highs State Lows

Community

WunderPhotos

Upload Photos

1,833,969 photos uploaded!

Nearby

Air Quality

  Air Quality AQ Index Pollutant
Yesterday Good
OZONE
Yesterday Good
PM2.5
Current Good
OZONE
Current Good
PM2.5
Monday Good
OZONE
Monday Good
PM2.5
Tuesday Good
OZONE
Tuesday Good
PM2.5
Wednesday Good
PM2.5
Wednesday Good
OZONE

Snow Depth

Station Depth Elevation
No new snow has been reported.

Earthquake Activity

City Distance Mag. Time & Date
No recent earthquake activity has been reported nearby.
Minimum magnitude displayed is 2.5.

Coastal Water Temperatures

Place Temperature
No Stations Reporting

Nearby Weather Stations